Saint Petersburg, Florida
Current Conditions -  °F | °C
As of 6:53 PM on Thursday 18 Dec 2014 (Local Time) from KSPG Reporting Station
Clear Clear  
Wind Chill: 61°   Ceiling: Unl
Heat Index: 61°   Visibility: 10mi
Dew Point: 53°   Wind: 6mph
Humidity: 75%   Direction: 350°N
Pressure: 30.11"   Gusts: NA
Location:  27.77°N, 82.63°W
Report Text: KSPG 182353Z 35005KT 10SM CLR 16/12 A3011 RMK AO2 SLP196 T01610117 10189 20161 51009
Loading
Personal Weather Stations






























Interactive Weather Map New forecast layout! Learn more

10-Day Weather Forecast

Advertisements
Track Severe Weather on mobile